Time;durP1;ratioP1;P1;durP2;ratioP2;P2;SDS_P1;SDS_P2;PMS_P1;PMS_P2;Temp;Humidity;BMP_temperature;BMP_pressure;BME280_temperature;BME280_humidity;BME280_pressure;Samples;Min_cycle;Max_cycle;Signal;HPM_P1;HPM_P2
2020/12/08 00:02:28;;;;;;;22.95;15.18;;;;;;;;;;5033406;28;20025;-82
2020/12/08 00:05:14;;;;;;;29.05;16.02;;;;;;;;;;5044853;28;20070;-81
2020/12/08 00:08:03;;;;;;;24.05;14.65;;;;;;;;;;5045990;28;20077;-81
2020/12/08 00:10:48;;;;;;;21.30;13.93;;;;;;;;;;5040997;28;20086;-81
2020/12/08 00:13:34;;;;;;;21.83;13.85;;;;;;;;;;5046190;28;20021;-82
2020/12/08 00:16:19;;;;;;;25.60;15.73;;;;;;;;;;5039227;28;20031;-81
2020/12/08 00:19:05;;;;;;;22.30;13.80;;;;;;;;;;5039673;28;20107;-82
2020/12/08 00:21:50;;;;;;;24.08;14.73;;;;;;;;;;5040961;28;20047;-81
2020/12/08 00:24:35;;;;;;;22.60;13.98;;;;;;;;;;5041834;28;20024;-81
2020/12/08 00:27:23;;;;;;;22.02;13.55;;;;;;;;;;5040053;28;20013;-82
2020/12/08 00:30:10;;;;;;;19.92;13.43;;;;;;;;;;5034849;28;20028;-81
2020/12/08 00:32:55;;;;;;;23.00;15.35;;;;;;;;;;5041879;28;20064;-82
2020/12/08 00:35:43;;;;;;;23.40;15.27;;;;;;;;;;5058809;28;20489;-81
2020/12/08 00:38:28;;;;;;;22.48;13.10;;;;;;;;;;5062359;28;20036;-81
2020/12/08 00:41:14;;;;;;;22.63;14.63;;;;;;;;;;5066743;28;20118;-80
2020/12/08 00:43:59;;;;;;;23.63;14.15;;;;;;;;;;5057603;28;20028;-80
2020/12/08 00:46:51;;;;;;;23.15;15.07;;;;;;;;;;5059069;28;20043;-80
2020/12/08 00:49:39;;;;;;;23.92;16.10;;;;;;;;;;5056236;28;20020;-81
2020/12/08 00:52:25;;;;;;;21.15;14.13;;;;;;;;;;5061006;28;20051;-81
2020/12/08 00:55:10;;;;;;;24.48;14.85;;;;;;;;;;5069172;28;20028;-81
2020/12/08 00:57:55;;;;;;;20.48;12.43;;;;;;;;;;5063736;28;20031;-80
2020/12/08 01:00:40;;;;;;;22.50;14.13;;;;;;;;;;5068237;28;20016;-80
2020/12/08 01:03:25;;;;;;;23.33;15.15;;;;;;;;;;5072110;28;20070;-79
2020/12/08 01:06:11;;;;;;;22.70;15.38;;;;;;;;;;5064840;28;20697;-80
2020/12/08 01:08:56;;;;;;;23.52;15.80;;;;;;;;;;5067748;28;20439;-80
2020/12/08 01:11:41;;;;;;;27.52;17.10;;;;;;;;;;5068994;28;20035;-81
2020/12/08 01:14:27;;;;;;;25.23;15.07;;;;;;;;;;5052102;28;20395;-81
2020/12/08 01:17:12;;;;;;;23.95;14.75;;;;;;;;;;5072406;28;20028;-81
2020/12/08 01:19:57;;;;;;;22.55;15.27;;;;;;;;;;5061446;28;20036;-80
2020/12/08 01:22:42;;;;;;;24.80;15.68;;;;;;;;;;5063434;28;20031;-81
2020/12/08 01:25:28;;;;;;;24.20;15.52;;;;;;;;;;5059367;28;20025;-80
2020/12/08 01:28:13;;;;;;;23.05;15.18;;;;;;;;;;5068724;28;20103;-80
2020/12/08 01:30:58;;;;;;;24.70;15.85;;;;;;;;;;5062975;28;20089;-81
2020/12/08 01:33:43;;;;;;;27.20;17.42;;;;;;;;;;5050362;28;20470;-80
2020/12/08 01:36:29;;;;;;;29.08;18.55;;;;;;;;;;5065169;28;20120;-80
2020/12/08 01:39:14;;;;;;;24.42;16.00;;;;;;;;;;5058349;28;20033;-80
2020/12/08 01:41:59;;;;;;;23.92;16.15;;;;;;;;;;5048528;28;20032;-80
2020/12/08 01:44:59;;;;;;;22.73;14.55;;;;;;;;;;5056150;28;20016;-80
2020/12/08 01:47:45;;;;;;;26.42;16.77;;;;;;;;;;5059517;28;20028;-81
2020/12/08 01:50:30;;;;;;;23.95;16.23;;;;;;;;;;5059807;28;20025;-81
2020/12/08 01:53:16;;;;;;;27.17;18.27;;;;;;;;;;5053524;28;20546;-80
2020/12/08 01:56:01;;;;;;;26.58;17.25;;;;;;;;;;5055861;28;20052;-80
2020/12/08 01:58:49;;;;;;;27.13;17.55;;;;;;;;;;5061113;28;20028;-81
2020/12/08 02:01:34;;;;;;;32.65;19.15;;;;;;;;;;5057927;28;20475;-80
2020/12/08 02:04:19;;;;;;;27.98;18.13;;;;;;;;;;5058617;28;20439;-79
2020/12/08 02:07:05;;;;;;;26.88;17.05;;;;;;;;;;5053723;28;20059;-80
2020/12/08 02:09:50;;;;;;;28.40;17.73;;;;;;;;;;5056314;28;20020;-80
2020/12/08 02:12:35;;;;;;;26.10;16.63;;;;;;;;;;5054890;28;20082;-80
2020/12/08 02:15:28;;;;;;;29.20;17.13;;;;;;;;;;5056126;28;20395;-81
2020/12/08 02:18:14;;;;;;;30.90;18.75;;;;;;;;;;5054759;28;20029;-80
2020/12/08 02:21:00;;;;;;;28.08;17.58;;;;;;;;;;5050564;28;20017;-80
2020/12/08 02:23:49;;;;;;;26.33;17.67;;;;;;;;;;5059339;28;20459;-80
2020/12/08 02:26:35;;;;;;;27.88;15.77;;;;;;;;;;5054073;28;20111;-81
2020/12/08 02:29:20;;;;;;;26.92;17.58;;;;;;;;;;5047936;28;20458;-81
2020/12/08 02:32:05;;;;;;;27.17;18.10;;;;;;;;;;5053550;28;20024;-80
2020/12/08 02:34:51;;;;;;;27.42;17.60;;;;;;;;;;5030647;28;20033;-80
2020/12/08 02:37:36;;;;;;;32.25;19.42;;;;;;;;;;5040772;28;20017;-80
2020/12/08 02:40:21;;;;;;;29.67;18.50;;;;;;;;;;5046539;28;20387;-81
2020/12/08 02:43:06;;;;;;;26.35;17.08;;;;;;;;;;5044184;28;20024;-81
2020/12/08 02:45:52;;;;;;;27.67;17.55;;;;;;;;;;5054701;28;20029;-81
2020/12/08 02:48:37;;;;;;;26.35;16.50;;;;;;;;;;5042242;28;20559;-81
2020/12/08 02:51:22;;;;;;;27.50;16.50;;;;;;;;;;5042048;28;20032;-81
2020/12/08 02:54:07;;;;;;;29.50;18.05;;;;;;;;;;5034041;28;20391;-82
2020/12/08 02:56:52;;;;;;;26.95;17.40;;;;;;;;;;5040193;28;20040;-81
2020/12/08 02:59:38;;;;;;;29.58;19.52;;;;;;;;;;5044974;28;20432;-81
2020/12/08 03:02:24;;;;;;;30.35;18.90;;;;;;;;;;5044678;28;20037;-81
2020/12/08 03:05:09;;;;;;;31.00;18.45;;;;;;;;;;5042784;28;20021;-81
2020/12/08 03:07:55;;;;;;;33.28;19.20;;;;;;;;;;5046073;28;20372;-80
2020/12/08 03:10:40;;;;;;;27.70;17.77;;;;;;;;;;5041132;28;20021;-81
2020/12/08 03:13:29;;;;;;;26.65;15.52;;;;;;;;;;5046367;28;20471;-80
2020/12/08 03:16:18;;;;;;;30.63;18.35;;;;;;;;;;5047019;28;20745;-81
2020/12/08 03:19:03;;;;;;;27.48;17.35;;;;;;;;;;5041728;28;20021;-80
2020/12/08 03:21:48;;;;;;;29.38;18.15;;;;;;;;;;5044865;28;20523;-81
2020/12/08 03:24:33;;;;;;;28.27;17.52;;;;;;;;;;5037517;28;20163;-81
2020/12/08 03:27:19;;;;;;;26.80;16.65;;;;;;;;;;5043634;28;20033;-80
2020/12/08 03:30:07;;;;;;;32.55;19.67;;;;;;;;;;5048436;28;20108;-80
2020/12/08 03:32:53;;;;;;;32.40;19.63;;;;;;;;;;5047835;28;20048;-79
2020/12/08 03:35:40;;;;;;;31.90;19.23;;;;;;;;;;5050206;28;20063;-80
2020/12/08 03:38:25;;;;;;;32.88;18.88;;;;;;;;;;5051605;28;20029;-80
2020/12/08 03:41:10;;;;;;;28.10;17.92;;;;;;;;;;5059343;28;21730;-81
2020/12/08 03:43:55;;;;;;;30.50;17.33;;;;;;;;;;5062759;28;20027;-80
2020/12/08 03:46:41;;;;;;;29.75;18.48;;;;;;;;;;5059750;28;20017;-80
2020/12/08 03:49:26;;;;;;;28.75;18.98;;;;;;;;;;5060510;28;20565;-80
2020/12/08 03:52:11;;;;;;;28.40;17.33;;;;;;;;;;5059979;28;20059;-81
2020/12/08 03:54:57;;;;;;;31.63;19.17;;;;;;;;;;5056631;28;20016;-80
2020/12/08 03:57:42;;;;;;;30.25;18.95;;;;;;;;;;5058451;28;20102;-81
2020/12/08 04:00:27;;;;;;;32.58;19.88;;;;;;;;;;5062516;28;20032;-80
2020/12/08 04:03:12;;;;;;;33.03;20.15;;;;;;;;;;5054564;28;20488;-79
2020/12/08 04:06:04;;;;;;;30.13;18.05;;;;;;;;;;5055392;28;20021;-80
2020/12/08 04:08:49;;;;;;;32.67;19.08;;;;;;;;;;5060546;28;20064;-80
2020/12/08 04:11:35;;;;;;;33.03;20.08;;;;;;;;;;5057651;28;20028;-80
2020/12/08 04:14:20;;;;;;;38.33;22.65;;;;;;;;;;5061848;28;20036;-80
2020/12/08 04:17:05;;;;;;;32.13;19.85;;;;;;;;;;5055901;28;20183;-80
2020/12/08 04:19:51;;;;;;;35.13;20.90;;;;;;;;;;5062066;28;20020;-80
2020/12/08 04:22:36;;;;;;;36.78;22.77;;;;;;;;;;5059963;28;20569;-80
2020/12/08 04:25:21;;;;;;;33.67;20.92;;;;;;;;;;5050491;28;20440;-80
2020/12/08 04:28:08;;;;;;;34.83;19.85;;;;;;;;;;5057987;28;20017;-80
2020/12/08 04:30:54;;;;;;;33.92;21.05;;;;;;;;;;5062485;28;20028;-80
2020/12/08 04:33:48;;;;;;;34.40;21.27;;;;;;;;;;5060191;28;20055;-80
2020/12/08 04:36:36;;;;;;;34.15;20.27;;;;;;;;;;5056756;28;20576;-80
2020/12/08 04:39:21;;;;;;;33.47;21.17;;;;;;;;;;5059174;28;20301;-80
2020/12/08 04:42:06;;;;;;;33.28;20.85;;;;;;;;;;5052434;28;20483;-80
2020/12/08 04:44:52;;;;;;;38.60;23.33;;;;;;;;;;5056004;28;20028;-81
2020/12/08 04:47:38;;;;;;;35.13;21.25;;;;;;;;;;5060065;28;20020;-81
2020/12/08 04:50:23;;;;;;;34.83;20.30;;;;;;;;;;5055473;28;20032;-81
2020/12/08 04:53:08;;;;;;;35.38;20.83;;;;;;;;;;5057324;28;20021;-81
2020/12/08 04:55:54;;;;;;;33.55;19.88;;;;;;;;;;5057837;28;20036;-82
2020/12/08 04:58:41;;;;;;;33.88;20.83;;;;;;;;;;5039881;28;20052;-82
2020/12/08 05:01:27;;;;;;;38.05;22.20;;;;;;;;;;5055140;28;20035;-81
2020/12/08 05:04:12;;;;;;;36.28;21.55;;;;;;;;;;5062839;28;20024;-82
2020/12/08 05:07:01;;;;;;;32.83;21.38;;;;;;;;;;5065468;28;20025;-82
2020/12/08 05:09:46;;;;;;;37.65;20.40;;;;;;;;;;5061090;28;20031;-82
2020/12/08 05:12:31;;;;;;;39.33;22.48;;;;;;;;;;5057283;28;20360;-81
2020/12/08 05:15:17;;;;;;;36.08;22.40;;;;;;;;;;5065990;28;20059;-81
2020/12/08 05:18:09;;;;;;;37.45;21.38;;;;;;;;;;5061928;28;20013;-81
2020/12/08 05:21:04;;;;;;;34.25;21.45;;;;;;;;;;5061403;28;20034;-81
2020/12/08 05:23:50;;;;;;;37.50;22.35;;;;;;;;;;5056537;28;20025;-81
2020/12/08 05:26:35;;;;;;;34.45;20.85;;;;;;;;;;5053860;28;20116;-80
2020/12/08 05:29:20;;;;;;;39.85;22.85;;;;;;;;;;5055034;28;20040;-81
2020/12/08 05:32:15;;;;;;;36.33;22.48;;;;;;;;;;5058046;28;20029;-82
2020/12/08 05:35:04;;;;;;;38.15;22.70;;;;;;;;;;5041273;28;20051;-81
2020/12/08 05:37:53;;;;;;;38.17;22.45;;;;;;;;;;5044041;28;20479;-80
2020/12/08 05:40:42;;;;;;;38.35;22.58;;;;;;;;;;5044358;28;20791;-81
2020/12/08 05:43:33;;;;;;;36.63;22.47;;;;;;;;;;5042330;28;20017;-81
2020/12/08 05:46:21;;;;;;;39.15;22.92;;;;;;;;;;5039557;28;20259;-81
2020/12/08 05:49:09;;;;;;;34.78;21.75;;;;;;;;;;5040503;28;20025;-81
2020/12/08 05:51:55;;;;;;;38.40;22.20;;;;;;;;;;5044629;28;20021;-81
2020/12/08 05:54:40;;;;;;;36.88;22.83;;;;;;;;;;5041189;28;20033;-81
2020/12/08 05:57:31;;;;;;;38.15;24.50;;;;;;;;;;5046069;28;20020;-81
2020/12/08 06:00:21;;;;;;;35.47;21.63;;;;;;;;;;5057892;28;20025;-80
2020/12/08 06:03:06;;;;;;;;;;;;;;;;;;5055861;28;20706;-80
2020/12/08 06:05:52;;;;;;;34.35;20.75;;;;;;;;;;5039411;28;20472;-81
2020/12/08 06:08:47;;;;;;;34.58;20.10;;;;;;;;;;5039334;28;20078;-81
2020/12/08 06:11:32;;;;;;;36.03;21.20;;;;;;;;;;5041630;28;20501;-81
2020/12/08 06:14:29;;;;;;;38.65;22.27;;;;;;;;;;5042609;28;20533;-81
2020/12/08 06:17:14;;;;;;;35.13;21.27;;;;;;;;;;5044677;28;20115;-81
2020/12/08 06:19:59;;;;;;;37.15;22.77;;;;;;;;;;5042200;28;20029;-81
2020/12/08 06:22:57;;;;;;;38.50;23.88;;;;;;;;;;5039965;28;20021;-80
2020/12/08 06:25:42;;;;;;;36.80;22.08;;;;;;;;;;5042537;28;20020;-81
2020/12/08 06:28:28;;;;;;;34.28;21.67;;;;;;;;;;5046253;28;20027;-81
2020/12/08 06:31:13;;;;;;;36.47;22.98;;;;;;;;;;5038332;28;20028;-80
2020/12/08 06:33:58;;;;;;;41.83;23.48;;;;;;;;;;5055038;28;20292;-81
2020/12/08 06:36:43;;;;;;;38.10;24.25;;;;;;;;;;5055889;28;20032;-81
2020/12/08 06:39:29;;;;;;;35.20;22.15;;;;;;;;;;5059806;28;20033;-81
2020/12/08 06:42:14;;;;;;;38.83;23.70;;;;;;;;;;5066653;28;20032;-80
2020/12/08 06:45:06;;;;;;;38.65;22.85;;;;;;;;;;5061187;28;20112;-80
2020/12/08 06:47:52;;;;;;;41.92;24.63;;;;;;;;;;5064084;28;20036;-80
2020/12/08 06:50:37;;;;;;;37.80;22.63;;;;;;;;;;5068255;28;20020;-81
2020/12/08 06:53:25;;;;;;;34.67;22.23;;;;;;;;;;5067052;28;20072;-80
2020/12/08 06:56:10;;;;;;;42.00;24.42;;;;;;;;;;5065692;28;20023;-81
2020/12/08 06:58:55;;;;;;;42.55;24.20;;;;;;;;;;5063228;28;20360;-80
2020/12/08 07:01:48;;;;;;;32.67;21.42;;;;;;;;;;5064975;28;20020;-81
2020/12/08 07:04:33;;;;;;;39.17;22.65;;;;;;;;;;5052638;28;20118;-81
2020/12/08 07:07:19;;;;;;;42.05;23.90;;;;;;;;;;5063829;28;20390;-81
2020/12/08 07:10:04;;;;;;;39.80;23.52;;;;;;;;;;5060864;28;20292;-82
2020/12/08 07:12:53;;;;;;;41.95;23.70;;;;;;;;;;5057394;28;20027;-83
2020/12/08 07:15:39;;;;;;;39.47;25.00;;;;;;;;;;5058287;28;20025;-82
2020/12/08 07:18:24;;;;;;;37.33;22.48;;;;;;;;;;5062534;28;20048;-83
2020/12/08 07:21:12;;;;;;;40.53;24.35;;;;;;;;;;5064824;28;20447;-83
2020/12/08 07:23:58;;;;;;;93.75;59.50;;;;;;;;;;5063435;28;20478;-83
2020/12/08 07:26:43;;;;;;;69.82;40.88;;;;;;;;;;5060773;28;20078;-85
2020/12/08 07:29:28;;;;;;;41.55;24.80;;;;;;;;;;5056047;28;20025;-84
2020/12/08 07:32:14;;;;;;;40.45;25.58;;;;;;;;;;5058098;28;20029;-84
2020/12/08 07:34:59;;;;;;;39.90;23.23;;;;;;;;;;5047059;28;20070;-83
2020/12/08 07:37:44;;;;;;;48.03;25.80;;;;;;;;;;5040150;28;20764;-82
2020/12/08 07:40:35;;;;;;;48.92;27.13;;;;;;;;;;5044074;28;20110;-82
2020/12/08 07:43:28;;;;;;;41.40;24.15;;;;;;;;;;5037349;28;20033;-82
2020/12/08 07:46:20;;;;;;;41.22;26.25;;;;;;;;;;5044055;28;20008;-83
2020/12/08 07:49:10;;;;;;;42.28;23.88;;;;;;;;;;5044013;28;20032;-82
2020/12/08 07:51:58;;;;;;;41.75;25.38;;;;;;;;;;5039560;28;20522;-82
2020/12/08 07:54:44;;;;;;;45.15;27.73;;;;;;;;;;5050391;28;20041;-84
2020/12/08 07:57:30;;;;;;;42.00;26.23;;;;;;;;;;5059971;28;20016;-84
2020/12/08 08:00:15;;;;;;;44.72;27.00;;;;;;;;;;5037481;28;20084;-86
2020/12/08 08:03:00;;;;;;;43.38;25.70;;;;;;;;;;5043468;28;20035;-83
2020/12/08 08:05:45;;;;;;;44.28;25.80;;;;;;;;;;5036638;28;20525;-85
2020/12/08 08:08:31;;;;;;;38.92;23.33;;;;;;;;;;5046163;28;20541;-83
2020/12/08 08:11:17;;;;;;;37.55;23.98;;;;;;;;;;5042515;28;20036;-85
2020/12/08 08:14:08;;;;;;;45.67;29.30;;;;;;;;;;5029501;28;20033;-82
2020/12/08 08:16:53;;;;;;;58.47;33.75;;;;;;;;;;5046093;28;20036;-83
2020/12/08 08:19:39;;;;;;;42.63;25.83;;;;;;;;;;5037298;28;20025;-84
2020/12/08 08:22:24;;;;;;;43.35;25.52;;;;;;;;;;5040169;28;20111;-83
2020/12/08 08:25:10;;;;;;;47.97;27.90;;;;;;;;;;5042217;28;20024;-83
2020/12/08 08:27:55;;;;;;;43.15;25.83;;;;;;;;;;5029506;28;20183;-84
2020/12/08 08:30:41;;;;;;;44.78;28.05;;;;;;;;;;5045718;28;20032;-83
2020/12/08 08:33:26;;;;;;;42.03;26.13;;;;;;;;;;5056057;28;20047;-84
2020/12/08 08:36:11;;;;;;;43.88;26.42;;;;;;;;;;5061953;28;20085;-84
2020/12/08 08:38:57;;;;;;;43.67;25.63;;;;;;;;;;5066151;28;20017;-83
2020/12/08 08:41:42;;;;;;;80.22;49.25;;;;;;;;;;5065873;28;20019;-85
2020/12/08 08:44:27;;;;;;;42.42;26.75;;;;;;;;;;5069713;28;20433;-84
2020/12/08 08:47:12;;;;;;;42.40;26.23;;;;;;;;;;5050989;28;20748;-83
2020/12/08 08:49:58;;;;;;;46.75;25.90;;;;;;;;;;5060195;28;20141;-83
2020/12/08 08:52:43;;;;;;;38.83;24.33;;;;;;;;;;5065492;28;20489;-85
2020/12/08 08:55:28;;;;;;;41.83;27.10;;;;;;;;;;5065987;28;20569;-83
2020/12/08 08:58:14;;;;;;;38.25;24.05;;;;;;;;;;5063441;28;20030;-84
2020/12/08 09:00:59;;;;;;;37.83;24.02;;;;;;;;;;5067388;28;20182;-82
2020/12/08 09:03:48;;;;;;;39.97;24.85;;;;;;;;;;5063692;28;20042;-83
2020/12/08 09:06:33;;;;;;;43.85;26.48;;;;;;;;;;5061671;28;20032;-83
2020/12/08 09:09:19;;;;;;;37.85;25.23;;;;;;;;;;5067227;28;20497;-83
2020/12/08 09:12:06;;;;;;;38.08;24.25;;;;;;;;;;5057407;28;20032;-84
2020/12/08 09:14:58;;;;;;;35.72;24.20;;;;;;;;;;5062262;28;20021;-84
2020/12/08 09:17:43;;;;;;;36.08;24.13;;;;;;;;;;5065480;28;20386;-83
2020/12/08 09:20:28;;;;;;;36.65;24.45;;;;;;;;;;5066048;28;20024;-85
2020/12/08 09:23:14;;;;;;;40.65;25.05;;;;;;;;;;5060833;28;20025;-84
2020/12/08 09:26:01;;;;;;;37.80;24.67;;;;;;;;;;5062115;28;20040;-89
2020/12/08 09:28:47;;;;;;;40.65;25.48;;;;;;;;;;5065340;28;20067;-83
2020/12/08 09:31:32;;;;;;;36.53;23.90;;;;;;;;;;5070583;28;20031;-82
2020/12/08 09:34:18;;;;;;;39.55;26.48;;;;;;;;;;5050479;28;20052;-83
2020/12/08 09:37:04;;;;;;;37.53;24.60;;;;;;;;;;5060447;28;20025;-84
2020/12/08 09:39:49;;;;;;;37.72;24.42;;;;;;;;;;5057718;28;20523;-82
2020/12/08 09:42:37;;;;;;;38.38;25.67;;;;;;;;;;5060051;28;20644;-82
2020/12/08 09:45:22;;;;;;;42.20;27.17;;;;;;;;;;5059224;28;20037;-81
2020/12/08 09:48:08;;;;;;;65.40;42.42;;;;;;;;;;5051556;28;20025;-81
2020/12/08 09:50:53;;;;;;;44.15;27.83;;;;;;;;;;5054769;28;20462;-81
2020/12/08 09:53:39;;;;;;;37.80;25.40;;;;;;;;;;5055656;28;20086;-83
2020/12/08 09:56:24;;;;;;;40.60;25.92;;;;;;;;;;5056007;28;20024;-82
2020/12/08 09:59:09;;;;;;;39.40;26.60;;;;;;;;;;5062225;28;20506;-82
2020/12/08 10:01:55;;;;;;;39.55;26.33;;;;;;;;;;5053188;28;20025;-84
2020/12/08 10:04:40;;;;;;;37.30;25.80;;;;;;;;;;5057524;28;20018;-82
2020/12/08 10:07:25;;;;;;;37.92;24.40;;;;;;;;;;5052526;28;20124;-83
2020/12/08 10:10:11;;;;;;;44.20;25.95;;;;;;;;;;5055271;28;20058;-84
2020/12/08 10:12:56;;;;;;;40.35;25.98;;;;;;;;;;5038156;28;20021;-82
2020/12/08 10:15:41;;;;;;;42.80;27.38;;;;;;;;;;5048285;28;20048;-83
2020/12/08 10:18:26;;;;;;;39.95;25.65;;;;;;;;;;5054444;28;20234;-82
2020/12/08 10:21:11;;;;;;;65.70;42.83;;;;;;;;;;5056673;28;20091;-81
2020/12/08 10:23:57;;;;;;;52.30;33.63;;;;;;;;;;5060147;28;20025;-82
2020/12/08 10:26:42;;;;;;;41.75;25.95;;;;;;;;;;5047423;28;20060;-81
2020/12/08 10:29:29;;;;;;;38.50;24.83;;;;;;;;;;5052964;28;20032;-81
2020/12/08 10:32:14;;;;;;;44.13;28.02;;;;;;;;;;5059980;28;20032;-82
2020/12/08 10:35:00;;;;;;;46.13;29.15;;;;;;;;;;5036983;28;20098;-82
2020/12/08 10:37:45;;;;;;;37.65;26.25;;;;;;;;;;5042311;28;20101;-81
2020/12/08 10:40:30;;;;;;;35.75;23.92;;;;;;;;;;5034236;28;20016;-82
2020/12/08 10:43:16;;;;;;;41.22;26.10;;;;;;;;;;5044129;28;20060;-82
2020/12/08 10:46:01;;;;;;;40.85;24.40;;;;;;;;;;5037402;28;20078;-82
2020/12/08 10:48:49;;;;;;;42.13;25.08;;;;;;;;;;5048807;28;20429;-83
2020/12/08 10:51:35;;;;;;;37.13;24.10;;;;;;;;;;5025114;28;20020;-83
2020/12/08 10:54:20;;;;;;;37.72;24.23;;;;;;;;;;5040528;28;20025;-82
2020/12/08 10:57:05;;;;;;;38.28;24.73;;;;;;;;;;5038445;28;20025;-83
2020/12/08 10:59:51;;;;;;;38.88;23.95;;;;;;;;;;5040674;28;20505;-82
2020/12/08 11:02:37;;;;;;;34.97;23.48;;;;;;;;;;5039391;28;20042;-83
2020/12/08 11:05:22;;;;;;;39.60;24.73;;;;;;;;;;5039752;28;20555;-84
2020/12/08 11:08:08;;;;;;;41.13;24.40;;;;;;;;;;5040827;28;20029;-83
2020/12/08 11:10:54;;;;;;;34.97;23.75;;;;;;;;;;5037689;28;20025;-82
2020/12/08 11:13:39;;;;;;;37.90;24.42;;;;;;;;;;5039395;28;20027;-82
2020/12/08 11:16:25;;;;;;;36.17;26.02;;;;;;;;;;5039943;28;20025;-82
2020/12/08 11:19:10;;;;;;;31.67;22.98;;;;;;;;;;5044503;28;20033;-83
2020/12/08 11:21:55;;;;;;;53.30;36.38;;;;;;;;;;5038967;28;20052;-82
2020/12/08 11:24:41;;;;;;;76.00;55.42;;;;;;;;;;5034574;28;20016;-82
2020/12/08 11:27:26;;;;;;;32.47;25.17;;;;;;;;;;5038140;28;20025;-82
2020/12/08 11:30:11;;;;;;;32.20;24.42;;;;;;;;;;5046646;28;20034;-82
2020/12/08 11:32:57;;;;;;;35.17;26.15;;;;;;;;;;5040625;28;20056;-82
2020/12/08 11:35:42;;;;;;;42.05;36.40;;;;;;;;;;5061195;28;20024;-82
2020/12/08 11:38:27;;;;;;;1999.90;999.90;;;;;;;;;;5059643;28;20028;-83
2020/12/08 11:41:12;;;;;;;47.15;43.15;;;;;;;;;;5058966;28;20020;-81
2020/12/08 11:43:58;;;;;;;50.08;45.38;;;;;;;;;;5050544;28;20024;-81
2020/12/08 11:46:47;;;;;;;33.08;29.48;;;;;;;;;;5060532;28;20402;-81
2020/12/08 11:49:36;;;;;;;36.70;27.85;;;;;;;;;;5046088;28;20016;-80
2020/12/08 11:52:21;;;;;;;32.30;25.20;;;;;;;;;;5063875;28;20442;-80
2020/12/08 11:55:06;;;;;;;31.88;24.63;;;;;;;;;;5056481;28;20028;-80
2020/12/08 11:57:52;;;;;;;31.20;24.02;;;;;;;;;;5060761;28;20032;-79
2020/12/08 12:00:37;;;;;;;35.72;23.52;;;;;;;;;;5060520;28;20458;-81
2020/12/08 12:03:22;;;;;;;33.30;23.35;;;;;;;;;;5064806;28;20024;-80
2020/12/08 12:06:10;;;;;;;34.05;24.27;;;;;;;;;;5063520;28;20024;-82
2020/12/08 12:08:55;;;;;;;30.65;22.02;;;;;;;;;;5069287;28;20110;-81
2020/12/08 12:11:40;;;;;;;30.45;22.23;;;;;;;;;;5069554;28;20025;-79
2020/12/08 12:14:25;;;;;;;33.88;23.35;;;;;;;;;;5064901;28;20027;-80
2020/12/08 12:17:11;;;;;;;34.75;23.60;;;;;;;;;;5062867;28;20020;-78
2020/12/08 12:19:56;;;;;;;35.42;24.65;;;;;;;;;;5051014;28;20016;-80
2020/12/08 12:22:41;;;;;;;28.77;21.10;;;;;;;;;;5065361;28;20033;-81
2020/12/08 12:25:27;;;;;;;36.65;23.25;;;;;;;;;;5063782;28;20029;-81
2020/12/08 12:28:12;;;;;;;30.95;21.30;;;;;;;;;;5065857;28;20032;-81
2020/12/08 12:30:57;;;;;;;33.20;23.35;;;;;;;;;;5067211;28;20028;-82
2020/12/08 12:33:42;;;;;;;30.60;21.35;;;;;;;;;;5063108;28;20041;-83
2020/12/08 12:36:28;;;;;;;29.85;20.33;;;;;;;;;;5054517;28;20028;-81
2020/12/08 12:39:13;;;;;;;28.63;18.83;;;;;;;;;;5061245;28;20036;-80
2020/12/08 12:41:59;;;;;;;30.00;19.67;;;;;;;;;;5062851;28;20047;-81
2020/12/08 12:44:44;;;;;;;30.75;18.55;;;;;;;;;;5058032;28;20387;-81
2020/12/08 12:47:29;;;;;;;25.50;18.40;;;;;;;;;;5055149;28;20503;-80
2020/12/08 12:50:18;;;;;;;24.58;16.42;;;;;;;;;;5055431;28;20107;-81
2020/12/08 12:53:09;;;;;;;25.52;17.75;;;;;;;;;;5058589;28;20016;-80
2020/12/08 12:55:54;;;;;;;25.27;17.13;;;;;;;;;;5053865;28;20041;-80
2020/12/08 12:58:40;;;;;;;28.48;18.73;;;;;;;;;;5056548;28;20016;-80
2020/12/08 13:01:25;;;;;;;24.30;17.08;;;;;;;;;;5053127;28;20032;-81
2020/12/08 13:04:10;;;;;;;26.27;17.65;;;;;;;;;;5046196;28;20029;-80
2020/12/08 13:06:55;;;;;;;25.05;17.77;;;;;;;;;;5061526;28;20387;-80
2020/12/08 13:09:40;;;;;;;26.88;17.55;;;;;;;;;;5065672;28;20463;-79
2020/12/08 13:12:26;;;;;;;29.00;17.77;;;;;;;;;;5058156;28;20013;-79
2020/12/08 13:15:11;;;;;;;27.73;18.08;;;;;;;;;;5055344;28;20070;-80
2020/12/08 13:17:56;;;;;;;26.05;16.70;;;;;;;;;;5053052;28;20048;-79
2020/12/08 13:20:41;;;;;;;26.77;18.45;;;;;;;;;;5060217;28;20028;-79
2020/12/08 13:23:27;;;;;;;28.42;17.45;;;;;;;;;;5068577;28;20028;-79
2020/12/08 13:26:12;;;;;;;24.52;17.65;;;;;;;;;;5056332;28;20069;-80
2020/12/08 13:28:57;;;;;;;26.77;17.33;;;;;;;;;;5058380;28;20053;-81
2020/12/08 13:31:46;;;;;;;21.52;15.75;;;;;;;;;;5046341;28;20529;-79
2020/12/08 13:34:31;;;;;;;25.70;17.13;;;;;;;;;;5062635;28;20624;-82
2020/12/08 13:37:17;;;;;;;27.92;17.23;;;;;;;;;;5055142;28;20108;-83
2020/12/08 13:40:02;;;;;;;33.30;21.25;;;;;;;;;;5060206;28;20395;-80
2020/12/08 13:42:47;;;;;;;34.55;22.40;;;;;;;;;;5057555;28;20503;-81
2020/12/08 13:45:33;;;;;;;26.77;17.42;;;;;;;;;;5061582;28;20021;-81
2020/12/08 13:48:18;;;;;;;26.35;18.70;;;;;;;;;;5060472;28;20024;-80
2020/12/08 13:51:03;;;;;;;23.33;17.58;;;;;;;;;;5058044;28;20110;-80
2020/12/08 13:53:49;;;;;;;24.58;16.58;;;;;;;;;;5057580;28;20543;-79
2020/12/08 13:56:34;;;;;;;24.27;16.63;;;;;;;;;;5055054;28;20159;-80
2020/12/08 13:59:19;;;;;;;25.65;17.83;;;;;;;;;;5050537;28;20032;-79
2020/12/08 14:02:05;;;;;;;23.90;16.77;;;;;;;;;;5056777;28;20024;-79
2020/12/08 14:04:50;;;;;;;24.25;16.25;;;;;;;;;;5053285;28;20020;-79
2020/12/08 14:07:37;;;;;;;26.23;17.17;;;;;;;;;;5047509;28;20028;-78
2020/12/08 14:10:22;;;;;;;23.88;16.52;;;;;;;;;;5054945;28;20012;-79
2020/12/08 14:13:07;;;;;;;25.92;17.30;;;;;;;;;;5054634;28;20024;-79
2020/12/08 14:15:53;;;;;;;30.10;18.35;;;;;;;;;;5058821;28;20025;-79
2020/12/08 14:18:38;;;;;;;27.83;17.30;;;;;;;;;;5049675;28;20033;-79
2020/12/08 14:21:30;;;;;;;27.58;18.80;;;;;;;;;;5053551;28;20418;-79
2020/12/08 14:24:23;;;;;;;27.38;17.75;;;;;;;;;;5053691;28;20044;-79
2020/12/08 14:27:08;;;;;;;31.27;18.58;;;;;;;;;;5055043;28;20460;-79
2020/12/08 14:29:54;;;;;;;26.67;17.65;;;;;;;;;;5054390;28;20612;-79
2020/12/08 14:32:39;;;;;;;28.98;18.38;;;;;;;;;;5054212;28;20047;-79
2020/12/08 14:35:24;;;;;;;30.90;19.70;;;;;;;;;;5040217;28;20029;-78
2020/12/08 14:38:09;;;;;;;32.50;17.92;;;;;;;;;;5042390;28;20028;-79
2020/12/08 14:40:55;;;;;;;30.23;20.52;;;;;;;;;;5043149;28;20024;-79
2020/12/08 14:43:40;;;;;;;29.23;19.55;;;;;;;;;;5040760;28;20028;-79
2020/12/08 14:46:26;;;;;;;26.55;17.38;;;;;;;;;;5047423;28;20116;-79
2020/12/08 14:49:11;;;;;;;87.72;57.58;;;;;;;;;;5036144;28;20036;-79
2020/12/08 14:51:56;;;;;;;29.23;20.17;;;;;;;;;;5040618;28;20471;-81
2020/12/08 14:54:43;;;;;;;30.50;18.65;;;;;;;;;;5041329;28;20115;-82
2020/12/08 14:57:28;;;;;;;27.58;19.55;;;;;;;;;;5041560;28;20078;-81
2020/12/08 15:00:13;;;;;;;29.55;18.13;;;;;;;;;;5038789;28;20024;-81
2020/12/08 15:02:58;;;;;;;26.73;18.55;;;;;;;;;;5024529;28;20028;-80
2020/12/08 15:05:44;;;;;;;31.50;19.27;;;;;;;;;;5040266;28;20027;-81
2020/12/08 15:08:29;;;;;;;30.92;19.55;;;;;;;;;;5042293;28;20035;-81
2020/12/08 15:11:17;;;;;;;31.85;18.25;;;;;;;;;;5043452;28;20032;-80
2020/12/08 15:14:02;;;;;;;28.92;18.08;;;;;;;;;;5049025;28;20483;-79
2020/12/08 15:16:47;;;;;;;29.90;19.83;;;;;;;;;;5046134;28;20490;-81
2020/12/08 15:19:33;;;;;;;36.60;24.38;;;;;;;;;;5047023;28;20025;-79
2020/12/08 15:22:18;;;;;;;27.42;20.42;;;;;;;;;;5041579;28;20032;-79
2020/12/08 15:25:03;;;;;;;27.00;18.35;;;;;;;;;;5042392;28;20602;-80
2020/12/08 15:27:48;;;;;;;28.40;18.40;;;;;;;;;;5040233;28;20028;-79
2020/12/08 15:30:34;;;;;;;29.90;20.08;;;;;;;;;;5047403;28;20386;-78
2020/12/08 15:33:19;;;;;;;31.73;17.90;;;;;;;;;;5048488;28;20055;-78
2020/12/08 15:36:04;;;;;;;30.42;18.05;;;;;;;;;;5063969;28;20553;-78
2020/12/08 15:38:49;;;;;;;29.10;19.42;;;;;;;;;;5070094;28;20059;-78
2020/12/08 15:41:35;;;;;;;27.38;18.70;;;;;;;;;;5065549;28;20043;-78
2020/12/08 15:44:20;;;;;;;25.20;17.70;;;;;;;;;;5063477;28;20085;-78
2020/12/08 15:47:05;;;;;;;26.33;16.95;;;;;;;;;;5058969;28;20033;-78
2020/12/08 15:49:50;;;;;;;29.52;20.52;;;;;;;;;;5062075;28;20085;-78
2020/12/08 15:52:39;;;;;;;32.95;20.25;;;;;;;;;;5058681;28;20051;-77
2020/12/08 15:55:24;;;;;;;32.15;20.80;;;;;;;;;;5061889;28;20423;-78
2020/12/08 15:58:09;;;;;;;33.15;20.20;;;;;;;;;;5062646;28;20114;-78
2020/12/08 16:00:55;;;;;;;34.47;21.13;;;;;;;;;;5062522;28;20020;-79
2020/12/08 16:03:40;;;;;;;33.72;21.73;;;;;;;;;;5063421;28;20020;-79
2020/12/08 16:06:27;;;;;;;32.80;21.70;;;;;;;;;;5062123;28;20406;-79